Time;durP1;ratioP1;P1;durP2;ratioP2;P2;SDS_P1;SDS_P2;PMS_P1;PMS_P2;Temp;Humidity;BMP_temperature;BMP_pressure;BME280_temperature;BME280_humidity;BME280_pressure;Samples;Min_cycle;Max_cycle;Signal;HPM_P1;HPM_P2
2022/01/18 00:00:29;;;;;;;6.55;4.15;;;;;;;;;;4995348;28;20414;-72
2022/01/18 00:02:58;;;;;;;9.27;4.25;;;;;;;;;;5013060;28;20034;-73
2022/01/18 00:05:28;;;;;;;5.43;3.70;;;;;;;;;;5013075;28;20482;-73
2022/01/18 00:07:57;;;;;;;6.38;3.97;;;;;;;;;;4995143;28;20074;-73
2022/01/18 00:10:29;;;;;;;8.00;3.83;;;;;;;;;;4995584;28;20053;-72
2022/01/18 00:15:40;;;;;;;9.98;3.88;;;;;;;;;;4995097;28;20050;-73
2022/01/18 00:18:11;;;;;;;6.57;3.33;;;;;;;;;;4995011;28;20080;-73
2022/01/18 00:23:50;;;;;;;7.28;3.10;;;;;;;;;;4995448;28;20637;-74
2022/01/18 00:26:18;;;;;;;4.30;3.03;;;;;;;;;;5012874;28;20038;-74
2022/01/18 00:28:52;;;;;;;4.25;3.20;;;;;;;;;;5012687;28;20052;-75
2022/01/18 00:31:37;;;;;;;5.00;3.08;;;;;;;;;;4995257;28;20420;-76
2022/01/18 00:39:16;;;;;;;7.50;3.30;;;;;;;;;;5012837;28;20044;-74
2022/01/18 00:41:43;;;;;;;6.95;3.33;;;;;;;;;;4995241;28;20038;-75
2022/01/18 00:44:11;;;;;;;8.35;3.30;;;;;;;;;;4995413;28;20061;-74
2022/01/18 00:46:39;;;;;;;5.00;2.90;;;;;;;;;;4995121;28;20108;-75
2022/01/18 00:49:07;;;;;;;4.15;3.00;;;;;;;;;;5014632;28;20409;-75
2022/01/18 00:51:37;;;;;;;6.07;3.38;;;;;;;;;;5016773;28;20049;-74
2022/01/18 00:54:06;;;;;;;5.45;2.95;;;;;;;;;;5016489;28;20076;-75
2022/01/18 00:56:39;;;;;;;3.92;2.88;;;;;;;;;;4999226;28;20057;-74
2022/01/18 00:59:07;;;;;;;6.03;3.20;;;;;;;;;;5016424;28;20121;-75
2022/01/18 01:01:36;;;;;;;6.22;3.28;;;;;;;;;;4998685;28;20041;-75
2022/01/18 01:04:04;;;;;;;4.55;2.80;;;;;;;;;;4998754;28;20053;-74
2022/01/18 01:06:32;;;;;;;4.05;3.05;;;;;;;;;;5016200;28;20048;-74
2022/01/18 01:09:00;;;;;;;6.30;3.33;;;;;;;;;;5016296;28;20138;-74
2022/01/18 01:11:28;;;;;;;5.30;2.95;;;;;;;;;;5016396;28;20225;-74
2022/01/18 01:14:00;;;;;;;7.80;2.97;;;;;;;;;;5015230;28;20041;-74
2022/01/18 01:19:27;;;;;;;5.53;3.10;;;;;;;;;;5015358;28;20478;-74
2022/01/18 01:33:47;;;;;;;9.43;3.40;;;;;;;;;;4961724;28;20682;-74
2022/01/18 01:41:50;;;;;;;10.98;2.97;;;;;;;;;;4940113;28;20046;-73
2022/01/18 01:44:23;;;;;;;9.60;3.13;;;;;;;;;;4975063;28;20057;-73
2022/01/18 01:46:52;;;;;;;7.20;3.03;;;;;;;;;;4974478;28;20098;-73
2022/01/18 01:49:22;;;;;;;4.30;3.42;;;;;;;;;;4974288;28;20094;-74
2022/01/18 01:51:50;;;;;;;7.22;3.42;;;;;;;;;;4975015;28;20053;-73
2022/01/18 01:54:19;;;;;;;6.65;3.33;;;;;;;;;;4998408;28;20046;-74
2022/01/18 01:56:47;;;;;;;6.53;3.40;;;;;;;;;;5015682;28;20038;-73
2022/01/18 01:59:15;;;;;;;4.90;3.22;;;;;;;;;;5015492;28;20096;-74
2022/01/18 02:01:48;;;;;;;6.13;3.22;;;;;;;;;;5014933;28;20044;-73
2022/01/18 02:04:16;;;;;;;;;;;;;;;;;;5016074;28;20038;-74
2022/01/18 02:06:44;;;;;;;4.38;2.97;;;;;;;;;;5014969;28;19921;-73
2022/01/18 02:09:13;;;;;;;3.60;2.80;;;;;;;;;;4997646;28;20049;-74
2022/01/18 02:11:42;;;;;;;6.50;3.10;;;;;;;;;;5015341;28;20103;-73
2022/01/18 02:14:15;;;;;;;7.15;3.10;;;;;;;;;;5014873;28;20054;-74
2022/01/18 02:22:17;;;;;;;3.70;3.00;;;;;;;;;;5015235;28;20044;-74
2022/01/18 02:24:44;;;;;;;4.32;2.83;;;;;;;;;;5014720;28;20446;-74
2022/01/18 02:27:12;;;;;;;5.20;3.00;;;;;;;;;;5014849;28;20041;-74
2022/01/18 02:29:40;;;;;;;4.93;2.80;;;;;;;;;;5014854;28;20124;-74
2022/01/18 02:32:08;;;;;;;6.40;2.83;;;;;;;;;;5014769;28;20048;-74
2022/01/18 02:34:36;;;;;;;6.43;3.08;;;;;;;;;;5014563;28;20567;-74
2022/01/18 02:37:04;;;;;;;8.73;3.13;;;;;;;;;;5014507;28;20038;-73
2022/01/18 02:39:32;;;;;;;4.60;3.10;;;;;;;;;;5014717;28;20044;-73
2022/01/18 02:42:01;;;;;;;4.95;3.40;;;;;;;;;;5014586;28;20038;-73
2022/01/18 02:44:30;;;;;;;6.00;3.00;;;;;;;;;;4997019;28;20049;-74
2022/01/18 02:46:59;;;;;;;5.95;3.15;;;;;;;;;;5014681;28;20046;-74
2022/01/18 02:49:28;;;;;;;8.45;4.03;;;;;;;;;;4996665;28;20074;-74
2022/01/18 02:51:56;;;;;;;6.63;3.70;;;;;;;;;;5014719;28;20050;-74
2022/01/18 02:54:26;;;;;;;5.25;3.72;;;;;;;;;;5014649;28;20448;-73
2022/01/18 02:56:59;;;;;;;7.15;3.80;;;;;;;;;;4997113;28;20413;-74
2022/01/18 03:00:13;;;;;;;7.00;3.50;;;;;;;;;;5014735;28;20382;-74
2022/01/18 03:05:12;;;;;;;7.05;3.55;;;;;;;;;;4996675;28;20057;-74
2022/01/18 03:07:40;;;;;;;8.13;3.65;;;;;;;;;;4997026;28;20038;-74
2022/01/18 03:10:09;;;;;;;5.70;3.33;;;;;;;;;;5014291;28;20413;-73
2022/01/18 03:12:37;;;;;;;7.43;3.40;;;;;;;;;;5013205;28;20041;-73
2022/01/18 03:15:05;;;;;;;6.15;3.15;;;;;;;;;;5014189;28;20041;-74
2022/01/18 03:17:33;;;;;;;7.00;3.70;;;;;;;;;;4996575;28;20125;-73
2022/01/18 03:20:02;;;;;;;4.53;3.40;;;;;;;;;;5014438;28;20033;-74
2022/01/18 03:22:30;;;;;;;8.70;3.67;;;;;;;;;;5014490;28;20465;-73
2022/01/18 03:25:13;;;;;;;4.53;3.20;;;;;;;;;;5013816;28;20038;-73
2022/01/18 03:30:27;;;;;;;4.72;3.00;;;;;;;;;;5014021;28;20129;-74
2022/01/18 03:32:54;;;;;;;5.32;3.42;;;;;;;;;;5014205;28;20052;-73
2022/01/18 03:35:23;;;;;;;5.38;3.20;;;;;;;;;;5013791;28;20042;-74
2022/01/18 03:37:51;;;;;;;7.38;3.38;;;;;;;;;;5013613;28;20062;-74
2022/01/18 03:40:18;;;;;;;5.25;3.15;;;;;;;;;;4996529;28;20044;-73
2022/01/18 03:42:47;;;;;;;8.00;2.95;;;;;;;;;;4996124;28;20041;-73
2022/01/18 03:45:27;;;;;;;5.60;3.30;;;;;;;;;;4996598;28;20401;-74
2022/01/18 03:47:57;;;;;;;4.78;2.90;;;;;;;;;;5013412;28;20042;-73
2022/01/18 03:50:24;;;;;;;5.43;3.15;;;;;;;;;;4979607;28;20052;-74
2022/01/18 03:52:52;;;;;;;4.15;2.85;;;;;;;;;;5013888;28;20359;-74
2022/01/18 03:55:20;;;;;;;5.35;2.80;;;;;;;;;;4996270;28;20046;-74
2022/01/18 03:57:48;;;;;;;6.60;2.88;;;;;;;;;;5013737;28;20050;-74
2022/01/18 04:00:17;;;;;;;6.85;3.38;;;;;;;;;;5013330;28;20038;-73
2022/01/18 04:02:45;;;;;;;9.57;3.42;;;;;;;;;;4995597;28;20045;-74
2022/01/18 04:05:13;;;;;;;7.88;3.20;;;;;;;;;;4995696;28;20073;-73
2022/01/18 04:07:42;;;;;;;9.55;3.17;;;;;;;;;;4995802;28;20049;-74
2022/01/18 04:10:10;;;;;;;4.05;3.00;;;;;;;;;;5013437;28;20045;-73
2022/01/18 04:12:37;;;;;;;8.40;3.33;;;;;;;;;;4995781;28;20045;-74
2022/01/18 04:15:12;;;;;;;5.88;3.35;;;;;;;;;;5012917;28;20041;-74
2022/01/18 04:31:24;;;;;;;6.05;2.95;;;;;;;;;;5003543;28;20129;-74
2022/01/18 04:33:52;;;;;;;5.72;2.60;;;;;;;;;;4997111;28;20030;-73
2022/01/18 04:36:20;;;;;;;4.57;3.10;;;;;;;;;;5018396;28;20038;-73
2022/01/18 04:38:49;;;;;;;6.35;3.30;;;;;;;;;;5025056;28;20112;-74
2022/01/18 04:41:24;;;;;;;6.90;3.88;;;;;;;;;;5021523;28;20099;-73
2022/01/18 04:49:14;;;;;;;9.50;3.25;;;;;;;;;;5039092;28;20041;-73
2022/01/18 04:51:46;;;;;;;4.95;2.97;;;;;;;;;;5039377;28;20045;-74
2022/01/18 04:54:15;;;;;;;5.95;2.80;;;;;;;;;;5039356;28;20152;-74
2022/01/18 04:59:12;;;;;;;5.85;3.13;;;;;;;;;;5039139;28;20091;-73
2022/01/18 05:01:40;;;;;;;4.03;2.83;;;;;;;;;;5038668;28;20044;-73
2022/01/18 05:04:09;;;;;;;5.05;2.88;;;;;;;;;;5039253;28;20120;-72
2022/01/18 05:06:37;;;;;;;4.78;3.08;;;;;;;;;;5039116;28;20056;-74
2022/01/18 05:09:10;;;;;;;12.45;4.00;;;;;;;;;;5038892;28;20052;-74
2022/01/18 05:12:11;;;;;;;4.90;3.50;;;;;;;;;;5037383;28;20048;-74
2022/01/18 05:14:40;;;;;;;9.57;4.22;;;;;;;;;;5020965;28;20067;-75
2022/01/18 05:20:43;;;;;;;6.43;3.30;;;;;;;;;;4995722;28;20049;-73
2022/01/18 05:23:01;;;;;;;7.00;3.63;;;;;;;;;;5036843;28;20052;-74
2022/01/18 05:25:30;;;;;;;8.25;3.45;;;;;;;;;;5020726;28;20049;-73
2022/01/18 05:27:59;;;;;;;7.15;3.38;;;;;;;;;;5038830;28;20048;-74
2022/01/18 05:30:28;;;;;;;6.47;3.22;;;;;;;;;;5038587;28;20079;-74
2022/01/18 05:32:57;;;;;;;11.57;5.40;;;;;;;;;;5039198;28;20388;-73
2022/01/18 05:35:25;;;;;;;13.18;5.72;;;;;;;;;;5018272;28;20137;-73
2022/01/18 05:37:53;;;;;;;9.15;5.07;;;;;;;;;;5035482;28;20411;-74
2022/01/18 05:40:20;;;;;;;6.72;3.95;;;;;;;;;;5035812;28;20065;-74
2022/01/18 05:42:49;;;;;;;8.52;3.50;;;;;;;;;;5017810;28;20073;-73
2022/01/18 05:45:17;;;;;;;5.53;3.38;;;;;;;;;;5033526;28;20041;-73
2022/01/18 05:47:44;;;;;;;6.28;3.20;;;;;;;;;;5015500;28;20515;-74
2022/01/18 05:50:13;;;;;;;6.40;3.90;;;;;;;;;;5015369;28;20480;-73
2022/01/18 05:52:42;;;;;;;6.82;4.05;;;;;;;;;;4997768;28;20060;-74
2022/01/18 05:55:11;;;;;;;6.68;3.90;;;;;;;;;;4998133;28;20038;-73
2022/01/18 05:57:38;;;;;;;3.85;3.30;;;;;;;;;;5015278;28;20044;-73
2022/01/18 06:00:11;;;;;;;5.85;3.50;;;;;;;;;;5015620;28;20485;-74
2022/01/18 06:02:48;;;;;;;7.18;3.75;;;;;;;;;;5014885;28;20046;-73
2022/01/18 06:08:01;;;;;;;5.05;3.10;;;;;;;;;;5015396;28;20049;-73
2022/01/18 06:10:30;;;;;;;6.32;3.38;;;;;;;;;;4997706;28;20180;-74
2022/01/18 06:13:00;;;;;;;7.45;3.20;;;;;;;;;;5014836;28;20046;-74
2022/01/18 06:15:29;;;;;;;7.60;3.25;;;;;;;;;;5015314;28;20050;-72
2022/01/18 06:17:58;;;;;;;5.85;3.20;;;;;;;;;;5015166;28;20041;-73
2022/01/18 06:20:26;;;;;;;8.45;3.30;;;;;;;;;;5015209;28;20038;-74
2022/01/18 06:22:53;;;;;;;3.92;3.33;;;;;;;;;;4997818;28;20042;-70
2022/01/18 06:25:28;;;;;;;6.28;3.53;;;;;;;;;;4995795;28;20140;-70
2022/01/18 06:27:56;;;;;;;9.73;4.28;;;;;;;;;;5014835;28;20501;-71
2022/01/18 06:30:23;;;;;;;7.97;4.15;;;;;;;;;;4996372;28;20154;-71
2022/01/18 06:32:51;;;;;;;9.38;4.07;;;;;;;;;;5014067;28;20072;-71
2022/01/18 06:35:19;;;;;;;24.75;7.38;;;;;;;;;;5014550;28;20053;-71
2022/01/18 06:37:46;;;;;;;11.10;4.70;;;;;;;;;;5013680;28;20564;-71
2022/01/18 06:40:14;;;;;;;12.40;5.55;;;;;;;;;;5014402;28;20062;-71
2022/01/18 06:42:41;;;;;;;12.38;5.95;;;;;;;;;;5014529;28;20493;-71
2022/01/18 06:45:10;;;;;;;10.55;4.50;;;;;;;;;;5014590;28;20496;-72
2022/01/18 06:47:38;;;;;;;7.95;3.80;;;;;;;;;;5012926;28;20062;-71
2022/01/18 06:50:07;;;;;;;10.57;4.07;;;;;;;;;;5014441;28;20041;-71
2022/01/18 06:52:35;;;;;;;8.63;3.85;;;;;;;;;;5014656;28;20041;-71
2022/01/18 06:55:04;;;;;;;13.00;5.03;;;;;;;;;;4997461;28;20042;-72
2022/01/18 06:57:32;;;;;;;10.73;4.22;;;;;;;;;;5014491;28;20125;-71
2022/01/18 06:59:59;;;;;;;6.57;4.03;;;;;;;;;;5014349;28;20038;-71
2022/01/18 07:02:27;;;;;;;7.55;4.95;;;;;;;;;;5013424;28;20049;-71
2022/01/18 07:04:55;;;;;;;8.98;6.10;;;;;;;;;;5014469;28;20200;-71
2022/01/18 07:07:23;;;;;;;13.18;6.13;;;;;;;;;;5013930;28;20068;-72
2022/01/18 07:09:51;;;;;;;16.02;6.95;;;;;;;;;;5014315;28;20121;-72
2022/01/18 07:12:18;;;;;;;11.13;5.60;;;;;;;;;;4996360;28;20065;-72
2022/01/18 07:14:46;;;;;;;13.82;5.38;;;;;;;;;;5013793;28;20125;-72
2022/01/18 07:17:14;;;;;;;18.42;6.10;;;;;;;;;;5013842;28;20050;-72
2022/01/18 07:19:42;;;;;;;13.13;7.72;;;;;;;;;;5013333;28;20049;-72
2022/01/18 07:22:09;;;;;;;14.68;6.03;;;;;;;;;;5012955;28;20033;-72
2022/01/18 07:24:44;;;;;;;14.88;5.50;;;;;;;;;;5012202;28;20061;-72
2022/01/18 07:27:12;;;;;;;11.48;4.93;;;;;;;;;;5013376;28;20409;-72
2022/01/18 07:29:43;;;;;;;9.80;4.78;;;;;;;;;;5012536;28;20041;-72
2022/01/18 07:32:12;;;;;;;9.48;4.80;;;;;;;;;;5013673;28;20050;-72
2022/01/18 07:34:48;;;;;;;10.68;5.00;;;;;;;;;;5013098;28;20121;-71
2022/01/18 07:37:23;;;;;;;7.63;4.80;;;;;;;;;;5013120;28;20045;-73
2022/01/18 07:39:51;;;;;;;9.30;4.32;;;;;;;;;;5013614;28;20037;-72
2022/01/18 07:42:21;;;;;;;14.38;6.18;;;;;;;;;;5013007;28;20070;-76
2022/01/18 07:44:49;;;;;;;13.07;6.25;;;;;;;;;;5012319;28;20138;-73
2022/01/18 07:47:17;;;;;;;10.02;5.50;;;;;;;;;;5012808;28;20405;-73
2022/01/18 07:49:45;;;;;;;12.85;4.93;;;;;;;;;;4993470;28;20446;-74
2022/01/18 07:52:15;;;;;;;8.57;4.78;;;;;;;;;;5010069;28;20041;-74
2022/01/18 07:54:42;;;;;;;11.88;4.68;;;;;;;;;;5012775;28;20046;-74
2022/01/18 07:57:13;;;;;;;10.60;4.88;;;;;;;;;;5012969;28;20046;-74
2022/01/18 07:59:40;;;;;;;8.50;3.45;;;;;;;;;;5013219;28;20446;-74
2022/01/18 08:02:08;;;;;;;19.60;4.47;;;;;;;;;;5013027;28;20042;-71
2022/01/18 08:04:36;;;;;;;57.28;7.03;;;;;;;;;;5012989;28;20521;-72
2022/01/18 08:07:03;;;;;;;15.32;5.97;;;;;;;;;;5012858;28;20045;-72
2022/01/18 08:09:31;;;;;;;11.57;5.65;;;;;;;;;;5012553;28;20080;-71
2022/01/18 08:11:59;;;;;;;6.75;4.80;;;;;;;;;;5012131;28;20100;-72
2022/01/18 08:14:29;;;;;;;12.45;5.65;;;;;;;;;;5012133;28;20034;-73
2022/01/18 08:17:00;;;;;;;7.95;5.03;;;;;;;;;;5011163;28;20058;-71
2022/01/18 08:19:28;;;;;;;11.30;6.00;;;;;;;;;;5012756;28;20497;-74
2022/01/18 08:21:56;;;;;;;18.83;6.53;;;;;;;;;;5013191;28;20033;-74
2022/01/18 08:24:24;;;;;;;17.85;6.20;;;;;;;;;;5012831;28;20125;-73
2022/01/18 08:26:52;;;;;;;8.45;4.38;;;;;;;;;;5012283;28;20050;-72
2022/01/18 08:29:19;;;;;;;11.05;5.68;;;;;;;;;;5013001;28;20046;-73
2022/01/18 08:32:08;;;;;;;17.90;9.00;;;;;;;;;;5013265;28;20049;-74
2022/01/18 08:34:35;;;;;;;19.52;8.50;;;;;;;;;;5012045;28;20041;-74
2022/01/18 08:37:03;;;;;;;10.52;4.45;;;;;;;;;;5013296;28;20042;-74
2022/01/18 08:39:30;;;;;;;12.48;4.28;;;;;;;;;;5011965;28;20038;-74
2022/01/18 08:41:58;;;;;;;11.25;3.70;;;;;;;;;;5012022;28;20180;-72
2022/01/18 08:44:26;;;;;;;4.93;2.45;;;;;;;;;;4994404;28;20460;-71
2022/01/18 08:46:54;;;;;;;5.40;1.83;;;;;;;;;;5012198;28;20038;-70
2022/01/18 08:49:21;;;;;;;4.85;2.10;;;;;;;;;;5012398;28;20088;-71
2022/01/18 08:51:50;;;;;;;4.18;2.33;;;;;;;;;;5012655;28;20480;-72
2022/01/18 08:54:18;;;;;;;5.05;1.85;;;;;;;;;;5012467;28;20046;-70
2022/01/18 08:56:46;;;;;;;6.00;2.00;;;;;;;;;;5011157;28;20041;-72
2022/01/18 08:59:22;;;;;;;3.42;1.90;;;;;;;;;;5012330;28;20092;-72
2022/01/18 09:01:50;;;;;;;5.25;2.20;;;;;;;;;;4992250;28;20043;-72
2022/01/18 09:04:21;;;;;;;2.97;2.00;;;;;;;;;;5012461;28;20585;-73
2022/01/18 09:06:52;;;;;;;11.48;6.43;;;;;;;;;;4989278;28;20402;-71
2022/01/18 09:09:20;;;;;;;11.57;7.20;;;;;;;;;;4992758;28;20417;-70
2022/01/18 09:11:49;;;;;;;13.70;6.93;;;;;;;;;;4996159;28;20416;-71
2022/01/18 09:14:16;;;;;;;10.73;5.60;;;;;;;;;;4996054;28;20046;-70
2022/01/18 09:16:44;;;;;;;8.45;4.22;;;;;;;;;;4996486;28;20050;-72
2022/01/18 09:19:11;;;;;;;5.13;3.42;;;;;;;;;;4996216;28;20043;-70
2022/01/18 09:21:47;;;;;;;5.43;3.80;;;;;;;;;;4996474;28;20046;-74
2022/01/18 09:24:20;;;;;;;9.60;4.03;;;;;;;;;;4996580;28;20049;-71
2022/01/18 09:26:47;;;;;;;6.55;4.00;;;;;;;;;;5014136;28;20052;-71
2022/01/18 09:29:15;;;;;;;4.20;2.63;;;;;;;;;;5015906;28;20065;-71
2022/01/18 09:31:42;;;;;;;5.88;2.78;;;;;;;;;;4998747;28;20046;-71
2022/01/18 09:34:11;;;;;;;5.15;2.83;;;;;;;;;;5016160;28;20050;-69
2022/01/18 09:36:42;;;;;;;3.20;2.15;;;;;;;;;;5016361;28;20048;-69
2022/01/18 09:39:09;;;;;;;4.00;2.00;;;;;;;;;;5014987;28;20079;-69
2022/01/18 09:41:40;;;;;;;3.90;1.85;;;;;;;;;;5015978;28;20042;-69
2022/01/18 09:44:08;;;;;;;5.47;3.00;;;;;;;;;;5015907;28;20520;-69
2022/01/18 09:46:36;;;;;;;4.57;3.20;;;;;;;;;;5015430;28;20038;-69
2022/01/18 09:49:05;;;;;;;7.38;4.35;;;;;;;;;;5015764;28;20129;-69
2022/01/18 09:51:33;;;;;;;5.30;3.70;;;;;;;;;;5015451;28;20044;-69
2022/01/18 09:54:00;;;;;;;8.90;4.15;;;;;;;;;;5015343;28;20053;-69
2022/01/18 09:56:31;;;;;;;6.03;2.83;;;;;;;;;;5014731;28;20049;-69
2022/01/18 09:59:00;;;;;;;5.88;2.88;;;;;;;;;;5014594;28;20051;-69
2022/01/18 10:01:29;;;;;;;7.05;3.80;;;;;;;;;;5015086;28;20041;-69
2022/01/18 10:04:16;;;;;;;8.27;5.03;;;;;;;;;;5015491;28;20056;-69
2022/01/18 10:06:45;;;;;;;10.13;5.10;;;;;;;;;;5015104;28;20567;-69
2022/01/18 10:09:14;;;;;;;8.68;3.78;;;;;;;;;;5015309;28;20421;-69
2022/01/18 10:12:20;;;;;;;6.25;2.90;;;;;;;;;;5015560;28;20034;-69
2022/01/18 10:14:53;;;;;;;4.88;2.42;;;;;;;;;;4916317;29;20136;-69
2022/01/18 10:17:29;;;;;;;5.55;2.45;;;;;;;;;;5047621;23;20396;-75
2022/01/18 10:20:01;;;;;;;5.65;2.20;;;;;;;;;;4978004;28;20053;-74
2022/01/18 10:22:35;;;;;;;2.28;2.08;;;;;;;;;;4994614;28;20092;-70
2022/01/18 10:25:12;;;;;;;4.78;2.70;;;;;;;;;;4977807;28;20053;-79
2022/01/18 10:27:40;;;;;;;4.80;1.90;;;;;;;;;;4997327;28;20042;-74
2022/01/18 10:30:10;;;;;;;4.65;2.38;;;;;;;;;;4996888;28;20080;-74
2022/01/18 10:32:41;;;;;;;3.53;2.35;;;;;;;;;;5014309;28;20140;-78
2022/01/18 10:35:10;;;;;;;3.25;2.40;;;;;;;;;;5013983;28;20046;-79
2022/01/18 10:37:41;;;;;;;4.30;2.47;;;;;;;;;;5013260;28;20042;-79
2022/01/18 10:40:13;;;;;;;7.13;2.95;;;;;;;;;;4996448;28;20033;-71
2022/01/18 10:42:48;;;;;;;6.55;2.90;;;;;;;;;;5013645;28;20038;-76
2022/01/18 10:45:15;;;;;;;5.03;2.55;;;;;;;;;;4994186;28;20109;-75
2022/01/18 10:47:57;;;;;;;5.03;2.70;;;;;;;;;;5013611;28;20042;-77
2022/01/18 10:50:30;;;;;;;3.65;2.17;;;;;;;;;;4991420;28;20050;-75
2022/01/18 10:53:15;;;;;;;3.20;2.38;;;;;;;;;;5013242;28;20521;-72
2022/01/18 10:55:44;;;;;;;4.88;2.50;;;;;;;;;;4995360;28;20128;-75
2022/01/18 10:58:12;;;;;;;7.57;3.03;;;;;;;;;;4995245;28;20037;-76
2022/01/18 11:00:40;;;;;;;5.63;2.72;;;;;;;;;;5013688;28;20048;-72
2022/01/18 11:03:09;;;;;;;6.70;3.03;;;;;;;;;;5013415;28;20092;-76
2022/01/18 11:05:38;;;;;;;8.63;2.90;;;;;;;;;;5013617;28;20042;-81
2022/01/18 11:08:06;;;;;;;5.35;3.42;;;;;;;;;;4996065;28;20081;-72
2022/01/18 11:10:35;;;;;;;8.57;3.08;;;;;;;;;;5013949;28;20037;-72
2022/01/18 11:13:24;;;;;;;6.22;3.05;;;;;;;;;;5013834;28;20038;-81
2022/01/18 11:15:53;;;;;;;4.50;2.97;;;;;;;;;;4996389;28;20149;-76
2022/01/18 11:18:30;;;;;;;4.20;2.70;;;;;;;;;;5013971;28;20042;-76
2022/01/18 11:21:02;;;;;;;3.17;2.60;;;;;;;;;;5014048;28;20042;-72
2022/01/18 11:23:34;;;;;;;3.43;2.77;;;;;;;;;;5013523;28;20089;-73
2022/01/18 11:26:02;;;;;;;4.72;2.50;;;;;;;;;;5013469;28;20121;-75
2022/01/18 11:28:34;;;;;;;6.07;2.95;;;;;;;;;;4995669;28;20049;-75
2022/01/18 11:31:03;;;;;;;4.57;2.70;;;;;;;;;;4995954;28;20069;-72
2022/01/18 11:33:31;;;;;;;5.90;2.80;;;;;;;;;;4995401;28;20056;-72
2022/01/18 11:36:12;;;;;;;4.88;3.17;;;;;;;;;;5013263;28;20076;-76
2022/01/18 11:38:54;;;;;;;6.18;3.58;;;;;;;;;;4991357;28;20140;-76
2022/01/18 11:41:23;;;;;;;4.80;2.78;;;;;;;;;;5013540;28;20038;-76
2022/01/18 11:43:52;;;;;;;8.32;3.63;;;;;;;;;;4994350;28;20421;-72
2022/01/18 11:46:27;;;;;;;6.88;2.88;;;;;;;;;;5013163;28;20057;-76
2022/01/18 11:49:06;;;;;;;3.33;2.42;;;;;;;;;;5013045;28;20050;-76
2022/01/18 11:51:38;;;;;;;5.20;2.58;;;;;;;;;;4995310;28;20045;-72
2022/01/18 11:54:17;;;;;;;;;;;;;;;;;;4996096;28;20056;-76
2022/01/18 11:56:46;;;;;;;7.43;3.00;;;;;;;;;;5013178;28;19921;-72
2022/01/18 11:59:17;;;;;;;4.13;2.83;;;;;;;;;;5012755;28;20049;-76
2022/01/18 12:01:52;;;;;;;4.97;2.75;;;;;;;;;;5012416;28;20065;-72
2022/01/18 12:07:32;;;;;;;3.83;3.08;;;;;;;;;;5012874;28;20056;-76
2022/01/18 12:10:00;;;;;;;6.30;3.05;;;;;;;;;;5012408;28;20042;-80
2022/01/18 12:12:36;;;;;;;4.97;2.90;;;;;;;;;;5012536;28;20053;-76
2022/01/18 12:15:04;;;;;;;4.63;2.83;;;;;;;;;;5012511;28;20519;-81
2022/01/18 12:17:46;;;;;;;5.68;2.90;;;;;;;;;;5012978;28;20523;-76
2022/01/18 12:20:33;;;;;;;4.57;3.03;;;;;;;;;;5012650;28;20042;-76
2022/01/18 12:23:01;;;;;;;4.88;2.75;;;;;;;;;;4995191;28;20034;-80
2022/01/18 12:25:33;;;;;;;9.65;3.65;;;;;;;;;;4995573;28;20113;-76
2022/01/18 12:28:21;;;;;;;5.50;2.75;;;;;;;;;;5012624;28;20096;-81
2022/01/18 12:31:05;;;;;;;6.70;2.75;;;;;;;;;;4995222;28;20096;-81
2022/01/18 12:33:45;;;;;;;7.10;2.90;;;;;;;;;;5012906;28;20468;-72
2022/01/18 12:36:31;;;;;;;5.63;2.88;;;;;;;;;;4995495;28;20452;-72
2022/01/18 12:38:59;;;;;;;5.18;2.60;;;;;;;;;;5012165;28;20030;-75
2022/01/18 12:41:51;;;;;;;5.88;2.85;;;;;;;;;;5012118;28;20050;-80
2022/01/18 12:44:22;;;;;;;7.18;3.53;;;;;;;;;;5012694;28;20460;-76
2022/01/18 12:46:59;;;;;;;5.88;2.70;;;;;;;;;;5015412;28;20130;-76
2022/01/18 12:49:27;;;;;;;5.18;2.92;;;;;;;;;;5013778;28;20038;-72
2022/01/18 12:52:11;;;;;;;5.80;2.60;;;;;;;;;;4996067;28;20062;-75
2022/01/18 12:54:39;;;;;;;6.30;2.85;;;;;;;;;;5015729;28;20048;-72
2022/01/18 12:57:17;;;;;;;7.32;2.70;;;;;;;;;;5015371;28;20050;-72
2022/01/18 13:00:01;;;;;;;6.00;3.00;;;;;;;;;;4995320;28;20132;-75
2022/01/18 13:02:31;;;;;;;7.55;3.72;;;;;;;;;;5013015;28;20053;-75
2022/01/18 13:05:01;;;;;;;8.40;2.92;;;;;;;;;;5015215;28;20076;-75
2022/01/18 13:07:29;;;;;;;9.43;2.95;;;;;;;;;;5015282;28;20523;-71
2022/01/18 13:09:57;;;;;;;5.60;2.75;;;;;;;;;;4997574;28;20037;-75
2022/01/18 13:12:32;;;;;;;11.38;3.15;;;;;;;;;;5012986;28;20049;-75
2022/01/18 13:15:02;;;;;;;4.97;2.70;;;;;;;;;;4996989;28;20046;-75
2022/01/18 13:23:51;;;;;;;7.20;3.13;;;;;;;;;;5012271;28;20042;-72
2022/01/18 13:26:14;;;;;;;9.38;3.15;;;;;;;;;;5013617;28;20383;-71
2022/01/18 13:28:42;;;;;;;6.10;3.00;;;;;;;;;;4994986;28;20043;-71
2022/01/18 13:31:17;;;;;;;6.90;2.88;;;;;;;;;;4996959;28;20124;-72
2022/01/18 13:33:48;;;;;;;5.85;2.58;;;;;;;;;;5011484;28;20129;-75
2022/01/18 13:36:16;;;;;;;14.05;3.00;;;;;;;;;;5014578;28;20034;-81
2022/01/18 13:38:44;;;;;;;8.68;3.30;;;;;;;;;;4994175;28;20080;-72
2022/01/18 13:41:12;;;;;;;8.35;2.40;;;;;;;;;;5014832;28;20037;-80
2022/01/18 13:43:39;;;;;;;5.47;2.75;;;;;;;;;;5014849;28;20061;-81
2022/01/18 13:46:07;;;;;;;6.07;2.67;;;;;;;;;;5014559;28;20129;-81
2022/01/18 13:48:37;;;;;;;5.72;3.00;;;;;;;;;;4980713;28;20100;-81
2022/01/18 13:51:08;;;;;;;6.93;2.60;;;;;;;;;;4996869;28;20052;-80
2022/01/18 13:53:36;;;;;;;7.28;3.10;;;;;;;;;;5015314;28;20072;-76
2022/01/18 13:56:03;;;;;;;5.15;2.95;;;;;;;;;;4996711;28;20046;-81
2022/01/18 13:58:36;;;;;;;6.30;2.58;;;;;;;;;;4997317;28;20042;-75
2022/01/18 14:01:04;;;;;;;;;;;;;;;;;;4996873;28;20050;-72
2022/01/18 14:03:32;;;;;;;7.30;3.22;;;;;;;;;;5014468;28;19921;-75
2022/01/18 14:06:01;;;;;;;5.47;2.95;;;;;;;;;;5014334;28;20044;-75
2022/01/18 14:08:40;;;;;;;7.40;3.03;;;;;;;;;;4996890;28;20053;-75
2022/01/18 14:11:09;;;;;;;7.05;2.80;;;;;;;;;;5013831;28;20100;-74
2022/01/18 14:13:37;;;;;;;6.57;3.08;;;;;;;;;;4995297;28;20138;-75
2022/01/18 14:16:23;;;;;;;8.90;3.03;;;;;;;;;;5013559;28;20064;-75
2022/01/18 14:18:57;;;;;;;9.02;3.42;;;;;;;;;;4996531;28;20486;-74
2022/01/18 14:21:31;;;;;;;10.50;3.38;;;;;;;;;;5014185;28;20067;-75
2022/01/18 14:24:14;;;;;;;7.32;2.90;;;;;;;;;;4995219;28;20042;-71
2022/01/18 14:26:56;;;;;;;5.32;2.63;;;;;;;;;;4995153;28;20070;-80
2022/01/18 14:29:42;;;;;;;6.00;3.13;;;;;;;;;;4995700;28;20442;-74
2022/01/18 14:32:09;;;;;;;6.68;2.35;;;;;;;;;;5011460;28;20141;-74
2022/01/18 14:34:42;;;;;;;5.30;2.85;;;;;;;;;;4996555;28;20429;-81
2022/01/18 14:37:13;;;;;;;10.27;2.67;;;;;;;;;;4990921;28;20445;-81
2022/01/18 14:39:52;;;;;;;4.18;2.40;;;;;;;;;;5012692;28;20117;-76
2022/01/18 14:42:20;;;;;;;9.75;2.92;;;;;;;;;;5012618;28;20042;-77
2022/01/18 14:45:00;;;;;;;4.82;2.67;;;;;;;;;;5009671;28;20037;-74
2022/01/18 14:47:28;;;;;;;5.32;2.60;;;;;;;;;;4988865;28;20046;-71
2022/01/18 14:49:56;;;;;;;6.25;2.30;;;;;;;;;;4989315;28;20048;-81
2022/01/18 14:52:25;;;;;;;4.70;2.05;;;;;;;;;;4993722;28;20129;-71
2022/01/18 14:54:53;;;;;;;9.23;2.90;;;;;;;;;;4979153;28;20413;-74
2022/01/18 14:57:21;;;;;;;4.32;2.50;;;;;;;;;;4993085;28;20138;-71
2022/01/18 14:59:49;;;;;;;6.28;2.50;;;;;;;;;;5005133;28;20034;-75
2022/01/18 15:02:16;;;;;;;3.30;2.10;;;;;;;;;;5007399;28;20064;-76
2022/01/18 15:04:44;;;;;;;6.30;2.42;;;;;;;;;;4991900;28;20046;-81
2022/01/18 15:07:12;;;;;;;6.63;2.45;;;;;;;;;;5002079;28;20039;-74
2022/01/18 15:09:40;;;;;;;9.13;2.55;;;;;;;;;;4994450;28;20061;-74
2022/01/18 15:12:07;;;;;;;4.97;2.03;;;;;;;;;;4979461;28;20564;-72
2022/01/18 15:14:35;;;;;;;3.00;1.92;;;;;;;;;;5012882;28;20457;-74
2022/01/18 15:17:06;;;;;;;4.28;2.28;;;;;;;;;;5012444;28;20057;-72
2022/01/18 15:19:36;;;;;;;10.25;3.20;;;;;;;;;;4994911;28;20133;-75
2022/01/18 15:22:08;;;;;;;5.63;2.20;;;;;;;;;;4995615;28;20034;-76
2022/01/18 15:24:36;;;;;;;3.70;1.70;;;;;;;;;;4995604;28;20399;-79
2022/01/18 15:27:05;;;;;;;5.50;1.98;;;;;;;;;;4994529;28;20485;-75
2022/01/18 15:29:33;;;;;;;3.05;2.00;;;;;;;;;;4991396;28;20062;-79
2022/01/18 15:32:01;;;;;;;1.85;1.48;;;;;;;;;;5006494;28;20116;-74
2022/01/18 15:34:28;;;;;;;4.65;1.77;;;;;;;;;;4976787;28;20133;-74
2022/01/18 15:36:56;;;;;;;9.98;2.00;;;;;;;;;;4995094;28;20049;-74
2022/01/18 15:39:23;;;;;;;5.25;1.80;;;;;;;;;;5004688;28;20052;-76
2022/01/18 15:41:51;;;;;;;7.40;1.77;;;;;;;;;;4995142;28;20042;-76
2022/01/18 15:44:19;;;;;;;2.55;1.70;;;;;;;;;;4995308;28;20033;-75
2022/01/18 15:46:50;;;;;;;2.55;1.60;;;;;;;;;;5012800;28;20422;-82
2022/01/18 15:49:20;;;;;;;2.30;1.90;;;;;;;;;;5012900;28;20041;-73
2022/01/18 15:51:48;;;;;;;4.00;2.00;;;;;;;;;;4994302;28;20052;-74
2022/01/18 15:54:16;;;;;;;3.90;1.55;;;;;;;;;;4994582;28;20045;-71
2022/01/18 15:56:45;;;;;;;2.25;1.42;;;;;;;;;;4994774;28;20044;-74
2022/01/18 15:59:14;;;;;;;2.03;1.33;;;;;;;;;;4994701;28;20034;-75
2022/01/18 16:01:41;;;;;;;4.80;1.40;;;;;;;;;;4994342;28;20034;-71
2022/01/18 16:04:12;;;;;;;3.80;1.70;;;;;;;;;;5011775;28;20084;-71
2022/01/18 16:06:39;;;;;;;3.58;1.30;;;;;;;;;;5011296;28;20036;-72
2022/01/18 16:09:08;;;;;;;3.33;1.33;;;;;;;;;;4989183;28;20084;-73
2022/01/18 16:11:36;;;;;;;4.50;1.70;;;;;;;;;;5009965;28;20038;-71
2022/01/18 16:14:04;;;;;;;3.78;1.90;;;;;;;;;;5009989;28;20057;-71
2022/01/18 16:16:32;;;;;;;8.48;2.90;;;;;;;;;;4988646;28;20049;-74
2022/01/18 16:18:59;;;;;;;3.85;1.50;;;;;;;;;;5007274;28;20128;-71
2022/01/18 16:21:27;;;;;;;5.13;2.30;;;;;;;;;;5006529;28;20122;-71